Time;durP1;ratioP1;P1;durP2;ratioP2;P2;SDS_P1;SDS_P2;PMS_P1;PMS_P2;Temp;Humidity;BMP_temperature;BMP_pressure;BME280_temperature;BME280_humidity;BME280_pressure;Samples;Min_cycle;Max_cycle;Signal;HPM_P1;HPM_P2
2023/03/03 08:44:40;;;;;;;117.82;32.90;;;;;;;;;;5235509;23;20055;-64
2023/03/03 08:47:05;;;;;;;87.68;23.55;;;0.90;99.90;;;;;;4896640;29;20402;-65
2023/03/03 08:49:31;;;;;;;76.78;21.27;;;0.10;99.90;;;;;;4897882;29;20033;-64
2023/03/03 08:51:59;;;;;;;64.97;18.75;;;;;;;;;;4897443;29;20037;-63
2023/03/03 08:54:25;;;;;;;53.78;16.88;;;0.10;99.90;;;;;;4894767;29;20037;-65
2023/03/03 08:56:50;;;;;;;53.83;16.25;;;0.10;99.90;;;;;;4905696;23;20108;-59
2023/03/03 08:59:16;;;;;;;67.32;20.67;;;1.00;99.90;;;;;;4896004;29;20558;-58
2023/03/03 09:01:43;;;;;;;94.15;25.85;;;0.30;99.90;;;;;;4885710;29;20516;-60
2023/03/03 09:04:09;;;;;;;78.45;24.98;;;0.30;99.90;;;;;;4884792;29;20088;-61
2023/03/03 09:06:35;;;;;;;98.45;29.67;;;0.30;99.90;;;;;;4888189;29;20487;-61
2023/03/03 09:09:00;;;;;;;94.80;28.58;;;0.30;99.90;;;;;;4895126;29;20036;-61
2023/03/03 09:11:28;;;;;;;81.80;25.55;;;0.50;99.90;;;;;;4895974;29;20107;-60
2023/03/03 09:14:11;;;;;;;73.85;23.75;;;0.30;99.90;;;;;;4894267;29;20333;-60
2023/03/03 09:16:41;;;;;;;71.22;20.88;;;0.50;99.90;;;;;;4894265;29;20029;-60
2023/03/03 09:19:42;;;;;;;66.00;19.00;;;0.50;99.90;;;;;;4894861;29;20036;-59
2023/03/03 09:22:22;;;;;;;68.45;21.35;;;0.50;99.90;;;;;;4883539;29;20040;-61
2023/03/03 09:24:51;;;;;;;69.45;22.83;;;0.50;99.90;;;;;;4896931;29;20048;-62
2023/03/03 09:27:29;;;;;;;65.28;20.98;;;0.60;99.90;;;;;;4895321;29;20443;-61
2023/03/03 09:30:00;;;;;;;45.75;17.60;;;0.60;99.90;;;;;;4894840;29;20029;-57
2023/03/03 09:32:34;;;;;;;38.03;13.65;;;0.70;99.90;;;;;;4895387;29;20096;-61
2023/03/03 09:35:19;;;;;;;45.65;17.65;;;0.90;99.90;;;;;;4894431;29;20107;-59
2023/03/03 09:37:49;;;;;;;48.20;17.80;;;0.90;99.90;;;;;;4898769;29;20076;-61
2023/03/03 09:40:54;;;;;;;46.10;17.77;;;1.30;99.90;;;;;;4894822;29;20040;-62
2023/03/03 09:43:35;;;;;;;60.20;21.10;;;0.80;99.90;;;;;;4864954;29;20044;-63
2023/03/03 09:46:06;;;;;;;69.40;24.30;;;1.60;99.90;;;;;;4895186;29;20111;-62
2023/03/03 09:49:02;;;;;;;75.03;24.20;;;0.80;99.90;;;;;;4894644;29;20043;-60
2023/03/03 09:51:40;;;;;;;68.40;23.35;;;0.70;99.90;;;;;;4894817;29;20032;-64
2023/03/03 09:54:08;;;;;;;61.38;22.52;;;0.80;99.90;;;;;;4895252;29;20190;-60
2023/03/03 09:57:00;;;;;;;53.30;19.83;;;0.90;99.90;;;;;;4895131;29;20037;-62
2023/03/03 09:59:47;;;;;;;43.63;17.23;;;1.20;99.90;;;;;;4882368;29;20039;-61
2023/03/03 10:02:21;;;;;;;47.63;19.15;;;1.40;99.90;;;;;;4895664;29;20091;-60
2023/03/03 10:05:16;;;;;;;47.03;19.02;;;1.50;99.90;;;;;;4894234;29;20032;-62
2023/03/03 10:07:47;;;;;;;36.47;15.77;;;1.90;99.90;;;;;;4895089;29;20050;-57
2023/03/03 10:10:37;;;;;;;30.65;11.75;;;1.80;99.90;;;;;;4894222;29;20486;-63
2023/03/03 10:13:16;;;;;;;27.48;11.65;;;1.70;99.90;;;;;;4894555;29;20032;-62
2023/03/03 10:16:26;;;;;;;28.73;12.85;;;1.60;99.90;;;;;;4894569;29;20032;-59
2023/03/03 10:19:02;;;;;;;21.17;10.95;;;1.70;99.90;;;;;;4897451;29;20104;-61
2023/03/03 10:21:41;;;;;;;25.80;10.93;;;1.70;99.90;;;;;;4894990;29;20463;-59
2023/03/03 10:24:27;;;;;;;29.08;11.90;;;1.70;99.90;;;;;;4897411;29;20052;-57
2023/03/03 10:27:23;;;;;;;30.40;14.48;;;1.80;99.90;;;;;;4899344;29;20486;-57
2023/03/03 10:30:01;;;;;;;28.98;12.63;;;1.90;99.90;;;;;;4898928;29;20039;-62
2023/03/03 10:32:33;;;;;;;19.98;11.02;;;1.90;99.90;;;;;;4898725;29;20043;-63
2023/03/03 10:35:07;;;;;;;26.92;11.43;;;1.70;99.90;;;;;;4896150;29;20025;-61
2023/03/03 10:38:04;;;;;;;32.83;10.90;;;1.80;99.90;;;;;;4886523;29;20394;-59
2023/03/03 10:40:47;;;;;;;17.23;9.98;;;1.80;99.90;;;;;;4898715;29;20028;-59
2023/03/03 10:43:13;;;;;;;27.23;11.63;;;1.60;99.90;;;;;;4883129;29;20036;-62
2023/03/03 10:45:45;;;;;;;21.70;11.35;;;1.60;99.90;;;;;;4898763;29;20459;-59
2023/03/03 10:48:36;;;;;;;20.83;10.50;;;1.60;99.90;;;;;;4898862;29;20071;-60
2023/03/03 10:51:13;;;;;;;21.88;10.95;;;1.80;99.90;;;;;;4898309;29;20043;-59
2023/03/03 10:53:44;;;;;;;29.50;13.50;;;1.90;99.90;;;;;;4898386;29;20428;-58
2023/03/03 10:56:45;;;;;;;40.33;15.50;;;1.80;99.90;;;;;;4898379;29;20510;-58
2023/03/03 10:59:32;;;;;;;32.15;13.52;;;1.80;99.90;;;;;;4852600;29;20089;-65
2023/03/03 11:02:05;;;;;;;35.40;15.13;;;1.90;99.90;;;;;;4897580;29;20021;-60
2023/03/03 11:04:51;;;;;;;37.38;13.65;;;1.80;99.90;;;;;;4897549;29;20177;-57
2023/03/03 11:07:37;;;;;;;31.98;12.48;;;1.60;99.90;;;;;;4896061;29;20040;-60
2023/03/03 11:10:30;;;;;;;37.17;14.15;;;1.60;99.90;;;;;;4897668;29;20036;-59
2023/03/03 11:13:09;;;;;;;31.58;13.25;;;1.70;99.90;;;;;;4896234;29;20028;-57
2023/03/03 11:15:49;;;;;;;46.83;18.10;;;2.00;99.90;;;;;;4898043;29;20028;-58
2023/03/03 11:18:49;;;;;;;46.17;16.98;;;2.10;99.90;;;;;;4897297;29;20471;-62
2023/03/03 11:21:33;;;;;;;43.67;16.70;;;2.20;99.90;;;;;;4895963;29;20033;-62
2023/03/03 11:24:22;;;;;;;44.78;14.57;;;2.20;99.90;;;;;;4897229;29;20028;-60
2023/03/03 11:26:48;;;;;;;44.63;17.75;;;2.20;99.90;;;;;;4897454;29;20037;-61
2023/03/03 11:29:32;;;;;;;68.28;23.42;;;2.50;99.90;;;;;;4897592;29;20035;-59
2023/03/03 11:32:36;;;;;;;75.28;27.63;;;2.30;99.90;;;;;;4897471;29;20455;-63
2023/03/03 11:35:28;;;;;;;73.80;23.73;;;2.10;99.90;;;;;;4897345;29;20037;-58
2023/03/03 11:38:18;;;;;;;46.80;16.33;;;3.80;99.90;;;;;;4905468;29;20131;-57
2023/03/03 11:40:51;;;;;;;66.05;21.35;;;2.20;99.90;;;;;;4900555;29;20116;-64
2023/03/03 11:43:20;;;;;;;72.90;23.63;;;2.00;99.90;;;;;;4896557;29;20243;-63
2023/03/03 11:45:52;;;;;;;87.95;30.13;;;2.10;99.90;;;;;;4886444;29;20033;-60
2023/03/03 11:48:24;;;;;;;73.88;25.80;;;2.10;99.90;;;;;;4897181;29;20056;-61
2023/03/03 11:51:11;;;;;;;64.68;23.35;;;2.20;99.90;;;;;;4897236;29;20036;-60
2023/03/03 11:53:46;;;;;;;48.25;18.02;;;2.40;99.90;;;;;;4896120;29;20082;-59
2023/03/03 11:56:20;;;;;;;49.80;18.00;;;2.60;99.90;;;;;;4896810;29;20027;-56
2023/03/03 11:59:05;;;;;;;;;;;2.70;99.90;;;;;;4894398;29;20064;-58
2023/03/03 12:01:45;;;;;;;80.70;27.95;;;2.60;99.90;;;;;;4890442;29;19967;-56
2023/03/03 12:04:20;;;;;;;63.20;21.23;;;2.50;99.90;;;;;;4897221;29;20092;-53
2023/03/03 12:07:01;;;;;;;60.13;18.95;;;2.40;99.90;;;;;;4896280;29;20040;-62
2023/03/03 12:10:02;;;;;;;51.45;16.85;;;2.60;99.90;;;;;;4897240;29;20514;-60
2023/03/03 12:12:38;;;;;;;52.03;16.48;;;2.80;99.90;;;;;;4897599;29;20032;-63
2023/03/03 12:15:19;;;;;;;43.90;17.00;;;2.80;99.90;;;;;;4896875;29;21256;-62
2023/03/03 12:18:12;;;;;;;38.15;16.02;;;2.80;99.90;;;;;;4896671;29;20155;-60
2023/03/03 12:21:20;;;;;;;39.22;13.82;;;2.90;99.90;;;;;;4875805;29;20107;-60
2023/03/03 12:24:12;;;;;;;43.05;15.45;;;2.60;99.90;;;;;;4894286;29;20112;-59
2023/03/03 12:26:58;;;;;;;48.88;16.77;;;2.70;99.90;;;;;;4897347;29;20025;-61
2023/03/03 12:29:28;;;;;;;52.45;16.58;;;2.70;99.90;;;;;;4886099;29;20081;-57
2023/03/03 12:32:15;;;;;;;40.75;15.70;;;2.40;99.90;;;;;;4896148;29;20029;-61
2023/03/03 12:34:49;;;;;;;41.55;16.20;;;2.40;99.90;;;;;;4896923;29;20056;-63
2023/03/03 12:37:25;;;;;;;;;;;2.70;99.90;;;;;;4892861;29;20507;-62
2023/03/03 12:39:59;;;;;;;51.80;15.60;;;2.80;99.90;;;;;;4896841;29;20070;-63
2023/03/03 12:42:57;;;;;;;33.10;13.93;;;2.90;99.90;;;;;;4896857;29;20025;-61
2023/03/03 12:45:29;;;;;;;31.58;14.25;;;2.70;99.90;;;;;;4887025;29;20618;-58
2023/03/03 12:47:58;;;;;;;42.13;15.10;;;2.60;99.90;;;;;;4896220;29;20115;-59
2023/03/03 12:50:30;;;;;;;38.80;15.23;;;3.40;99.90;;;;;;4895427;29;20024;-54
2023/03/03 12:52:56;;;;;;;44.72;15.40;;;2.70;99.90;;;;;;4895230;29;20498;-59
2023/03/03 12:55:30;;;;;;;45.72;14.88;;;2.90;99.90;;;;;;4896086;29;20047;-62
2023/03/03 12:58:19;;;;;;;33.30;13.48;;;2.90;99.90;;;;;;4891731;29;20036;-59
2023/03/03 13:00:47;;;;;;;48.50;16.20;;;2.90;99.90;;;;;;4896109;29;20127;-60
2023/03/03 13:03:34;;;;;;;44.22;15.38;;;2.90;99.90;;;;;;4895997;29;20447;-55
2023/03/03 13:06:13;;;;;;;45.38;15.88;;;2.80;99.90;;;;;;4895854;29;20040;-63
2023/03/03 13:08:56;;;;;;;47.33;15.05;;;3.50;99.90;;;;;;4895249;29;20096;-58
2023/03/03 13:11:30;;;;;;;50.05;15.65;;;3.00;99.90;;;;;;4882052;29;20339;-59
2023/03/03 13:14:06;;;;;;;38.75;15.80;;;2.70;99.90;;;;;;4894940;29;20071;-59
2023/03/03 13:16:58;;;;;;;45.38;16.60;;;2.70;99.90;;;;;;4895624;29;20130;-59
2023/03/03 13:19:35;;;;;;;45.83;14.43;;;3.10;99.90;;;;;;4876111;29;20037;-61
2023/03/03 13:22:36;;;;;;;50.95;16.20;;;2.80;99.90;;;;;;4895767;29;20029;-58
2023/03/03 13:25:06;;;;;;;41.65;16.20;;;2.90;99.90;;;;;;4877822;29;20116;-57
2023/03/03 13:27:38;;;;;;;43.15;15.23;;;3.00;99.90;;;;;;4895549;29;20064;-58
2023/03/03 13:30:13;;;;;;;38.65;15.80;;;2.90;99.90;;;;;;4895542;29;20096;-57
2023/03/03 13:32:39;;;;;;;;;;;2.90;99.90;;;;;;4897225;29;20033;-56
2023/03/03 13:35:19;;;;;;;42.80;15.57;;;3.20;99.90;;;;;;4896202;29;19912;-59
2023/03/03 13:37:48;;;;;;;37.95;14.90;;;3.30;99.90;;;;;;4896689;29;20032;-57
2023/03/03 13:40:25;;;;;;;45.67;15.27;;;3.80;99.90;;;;;;4896476;29;20444;-59
2023/03/03 13:43:00;;;;;;;44.65;15.05;;;3.10;99.90;;;;;;4895997;29;20067;-57
2023/03/03 13:45:44;;;;;;;;;;;3.00;99.90;;;;;;4897458;29;20028;-60
2023/03/03 13:48:37;;;;;;;48.25;16.67;;;3.00;99.90;;;;;;4897931;29;19930;-60
2023/03/03 13:51:30;;;;;;;48.03;18.38;;;3.20;99.90;;;;;;4896774;29;20116;-59
2023/03/03 13:54:10;;;;;;;47.00;18.10;;;3.40;99.90;;;;;;4896275;29;20463;-57
2023/03/03 13:57:06;;;;;;;39.28;15.98;;;3.40;99.90;;;;;;4890433;29;20033;-53
2023/03/03 13:59:41;;;;;;;46.28;16.85;;;3.30;99.90;;;;;;4882256;29;20080;-60
2023/03/03 14:02:48;;;;;;;43.72;17.48;;;3.30;99.90;;;;;;4895511;29;20037;-63
2023/03/03 14:05:32;;;;;;;48.15;16.88;;;3.40;99.90;;;;;;4862248;29;20036;-56
2023/03/03 14:08:06;;;;;;;45.15;18.25;;;3.60;99.90;;;;;;4891190;29;20048;-63
2023/03/03 14:10:34;;;;;;;43.88;16.05;;;3.40;99.90;;;;;;4894604;29;20041;-61
2023/03/03 14:13:03;;;;;;;49.33;17.98;;;3.30;99.90;;;;;;4875915;29;20039;-63
2023/03/03 14:15:42;;;;;;;44.15;17.27;;;3.30;99.90;;;;;;4893959;29;20052;-62
2023/03/03 14:18:31;;;;;;;38.88;15.60;;;3.60;99.90;;;;;;4893756;29;20115;-57
2023/03/03 14:21:12;;;;;;;35.42;15.30;;;4.40;99.90;;;;;;4894292;29;20435;-57
2023/03/03 14:23:58;;;;;;;37.70;16.48;;;3.70;99.90;;;;;;4892318;29;20135;-65
2023/03/03 14:26:24;;;;;;;42.80;16.23;;;3.60;99.90;;;;;;4871315;29;20029;-62
2023/03/03 14:29:02;;;;;;;45.45;17.08;;;3.50;99.90;;;;;;4888106;29;20427;-61
2023/03/03 14:31:42;;;;;;;36.38;14.25;;;3.40;99.90;;;;;;4883098;29;20073;-61
2023/03/03 14:34:17;;;;;;;43.83;15.52;;;3.30;99.90;;;;;;4884881;29;20707;-61
2023/03/03 14:36:43;;;;;;;45.88;16.83;;;3.20;99.90;;;;;;4889611;29;20052;-58
2023/03/03 14:39:27;;;;;;;39.05;12.65;;;3.20;99.90;;;;;;4891878;29;20052;-62
2023/03/03 14:41:56;;;;;;;32.13;13.93;;;3.10;99.90;;;;;;4892717;29;20047;-61
2023/03/03 14:44:28;;;;;;;30.52;13.95;;;3.10;99.90;;;;;;4893058;29;20113;-62
2023/03/03 14:47:09;;;;;;;29.50;15.13;;;5.20;99.90;;;;;;4892211;29;20402;-59
2023/03/03 14:49:37;;;;;;;32.90;14.80;;;3.10;99.90;;;;;;4893658;29;20028;-61
2023/03/03 14:52:10;;;;;;;33.08;14.50;;;3.10;99.90;;;;;;4894400;29;20454;-60
2023/03/03 14:54:41;;;;;;;39.40;14.38;;;3.30;99.90;;;;;;4894069;29;20040;-59
2023/03/03 14:57:47;;;;;;;31.40;14.18;;;3.50;99.90;;;;;;4894286;29;20084;-63
2023/03/03 15:00:13;;;;;;;27.65;14.98;;;3.60;99.90;;;;;;4885571;29;20069;-60
2023/03/03 15:02:51;;;;;;;37.33;14.85;;;3.70;99.90;;;;;;4890138;29;20124;-63
2023/03/03 15:05:26;;;;;;;33.72;14.23;;;3.60;99.90;;;;;;4893440;29;20029;-62
2023/03/03 15:07:57;;;;;;;37.28;15.73;;;3.70;99.90;;;;;;4894037;29;20033;-64
2023/03/03 15:10:44;;;;;;;32.47;13.98;;;3.60;99.90;;;;;;4893954;29;20566;-62
2023/03/03 15:13:19;;;;;;;27.33;14.07;;;3.60;99.90;;;;;;4895628;29;20419;-61
2023/03/03 15:16:03;;;;;;;31.08;13.80;;;3.50;99.90;;;;;;4897227;29;20491;-59
2023/03/03 15:18:31;;;;;;;33.72;14.50;;;3.40;99.90;;;;;;4897422;29;20024;-60
2023/03/03 15:21:17;;;;;;;30.85;14.52;;;3.30;99.90;;;;;;4897172;29;20119;-62
2023/03/03 15:23:43;;;;;;;34.90;14.25;;;3.40;99.90;;;;;;4897214;29;20517;-60
2023/03/03 15:26:35;;;;;;;26.42;12.73;;;3.80;99.90;;;;;;4897118;29;20041;-61
2023/03/03 15:29:31;;;;;;;29.73;13.50;;;3.60;99.90;;;;;;4892902;29;20035;-57
2023/03/03 15:32:04;;;;;;;37.15;14.57;;;3.70;99.90;;;;;;4904355;29;20109;-59
2023/03/03 15:34:38;;;;;;;35.33;14.60;;;3.60;99.90;;;;;;4888820;29;20033;-60
2023/03/03 15:37:22;;;;;;;32.90;14.03;;;3.50;99.90;;;;;;4896816;29;20028;-62
2023/03/03 15:40:09;;;;;;;32.95;13.80;;;3.60;99.90;;;;;;4896276;29;20119;-62
2023/03/03 15:42:38;;;;;;;32.97;13.98;;;3.50;99.90;;;;;;4880036;29;20517;-57
2023/03/03 15:45:39;;;;;;;31.90;14.32;;;3.50;99.90;;;;;;4896584;29;20040;-63
2023/03/03 15:48:24;;;;;;;34.90;13.27;;;3.60;99.90;;;;;;4886101;29;20088;-61
2023/03/03 15:50:50;;;;;;;;;;;3.40;99.90;;;;;;4894069;29;20056;-64
2023/03/03 15:53:25;;;;;;;33.53;13.55;;;3.50;99.90;;;;;;4896973;29;19915;-62
2023/03/03 15:56:14;;;;;;;39.33;16.27;;;4.30;99.90;;;;;;4896918;29;20028;-62
2023/03/03 15:59:01;;;;;;;41.17;15.90;;;3.60;99.90;;;;;;4896325;29;20095;-60
2023/03/03 16:02:10;;;;;;;32.35;14.13;;;3.60;99.90;;;;;;4900309;29;20407;-62
2023/03/03 16:04:43;;;;;;;32.08;14.10;;;3.70;99.90;;;;;;4811245;29;20362;-62
2023/03/03 16:07:50;;;;;;;28.40;14.45;;;3.80;99.90;;;;;;4880082;29;20048;-58
2023/03/03 16:10:52;;;;;;;33.10;14.73;;;3.80;99.90;;;;;;4850841;29;20127;-61
2023/03/03 16:13:48;;;;;;;37.60;14.32;;;3.80;99.90;;;;;;4891747;29;20435;-59
2023/03/03 16:16:29;;;;;;;28.17;14.02;;;3.80;99.90;;;;;;4894693;29;20028;-59
2023/03/03 16:19:12;;;;;;;38.03;14.68;;;4.00;99.90;;;;;;4896635;29;20516;-61
2023/03/03 16:21:56;;;;;;;42.67;15.68;;;3.80;99.90;;;;;;4894736;29;20040;-64
2023/03/03 16:24:56;;;;;;;34.40;14.43;;;3.70;99.90;;;;;;4891772;29;20028;-64
2023/03/03 16:27:34;;;;;;;32.88;15.32;;;3.60;99.90;;;;;;4896409;29;20032;-63
2023/03/03 16:30:33;;;;;;;31.23;15.20;;;3.70;99.90;;;;;;4894701;29;20039;-60
2023/03/03 16:33:14;;;;;;;36.33;16.13;;;3.60;99.90;;;;;;4896074;29;20136;-65
2023/03/03 16:35:57;;;;;;;26.20;13.85;;;3.60;99.90;;;;;;4898660;29;20028;-63
2023/03/03 16:38:31;;;;;;;33.22;14.93;;;3.60;99.90;;;;;;4882639;29;20044;-65
2023/03/03 16:40:59;;;;;;;32.88;15.55;;;3.60;99.90;;;;;;4897360;29;20028;-65
2023/03/03 16:43:42;;;;;;;33.33;15.68;;;3.40;99.90;;;;;;4896714;29;20447;-62
2023/03/03 16:46:30;;;;;;;40.53;16.48;;;3.50;99.90;;;;;;4896619;29;20060;-63
2023/03/03 16:49:02;;;;;;;41.28;18.52;;;3.50;99.90;;;;;;4896620;29;20058;-61
2023/03/03 16:51:40;;;;;;;33.72;15.68;;;3.50;99.90;;;;;;4896950;29;20414;-60
2023/03/03 16:54:36;;;;;;;40.50;16.05;;;3.40;99.90;;;;;;4896363;29;20043;-63
2023/03/03 16:57:29;;;;;;;38.00;16.33;;;3.30;99.90;;;;;;4895144;29;20033;-64
2023/03/03 17:00:21;;;;;;;41.40;16.92;;;3.30;99.90;;;;;;4896049;29;20459;-60
2023/03/03 17:02:59;;;;;;;39.05;17.42;;;3.20;99.90;;;;;;4896446;29;20033;-59
2023/03/03 17:05:53;;;;;;;37.42;17.05;;;3.20;99.90;;;;;;4896633;29;20428;-64
2023/03/03 17:08:39;;;;;;;40.22;17.02;;;3.10;99.90;;;;;;4896557;29;20039;-62
2023/03/03 17:11:26;;;;;;;39.67;18.45;;;3.10;99.90;;;;;;4896920;29;20035;-67
2023/03/03 17:14:00;;;;;;;39.85;17.13;;;3.00;99.90;;;;;;4896058;29;20120;-63
2023/03/03 17:16:31;;;;;;;49.80;19.58;;;3.00;99.90;;;;;;4896332;29;20479;-62
2023/03/03 17:19:15;;;;;;;47.45;19.83;;;3.00;99.90;;;;;;4896067;29;20380;-58
2023/03/03 17:22:23;;;;;;;38.28;16.20;;;2.90;99.90;;;;;;4896517;29;20509;-62
2023/03/03 17:25:06;;;;;;;39.20;17.42;;;2.70;99.90;;;;;;4896198;29;20033;-65
2023/03/03 17:27:51;;;;;;;45.15;19.33;;;2.80;99.90;;;;;;4896582;29;20036;-61
2023/03/03 17:30:25;;;;;;;39.35;17.50;;;2.70;99.90;;;;;;4896517;29;20061;-64
2023/03/03 17:33:34;;;;;;;45.78;17.90;;;2.80;99.90;;;;;;4896274;29;20052;-58
2023/03/03 17:36:21;;;;;;;38.97;17.58;;;2.80;99.90;;;;;;4801459;29;20034;-60
2023/03/03 17:39:11;;;;;;;40.35;16.98;;;4.90;99.90;;;;;;4802382;29;20027;-61
2023/03/03 17:41:49;;;;;;;35.38;16.52;;;2.80;99.90;;;;;;4878148;29;20044;-63
2023/03/03 17:44:36;;;;;;;44.33;18.55;;;2.70;99.90;;;;;;4895729;29;20039;-62
2023/03/03 17:47:11;;;;;;;47.38;18.42;;;2.60;99.90;;;;;;4895937;29;20036;-63
2023/03/03 17:49:56;;;;;;;49.35;18.98;;;2.70;99.90;;;;;;4896012;29;20032;-59
2023/03/03 17:52:52;;;;;;;51.20;18.80;;;2.90;99.90;;;;;;4896113;29;20036;-59
2023/03/03 17:55:27;;;;;;;42.40;17.23;;;2.70;99.90;;;;;;4895332;29;20029;-61
2023/03/03 17:57:52;;;;;;;;;;;3.10;99.90;;;;;;4895692;29;20047;-61
2023/03/03 18:00:36;;;;;;;36.65;16.02;;;3.20;99.90;;;;;;4895479;29;19907;-60
2023/03/03 18:03:26;;;;;;;31.23;14.48;;;3.20;99.90;;;;;;4895306;29;20033;-62
2023/03/03 18:05:58;;;;;;;38.72;15.90;;;3.60;99.90;;;;;;4895740;29;20546;-62
2023/03/03 18:08:29;;;;;;;41.13;17.67;;;3.30;99.90;;;;;;4895398;29;20029;-62
2023/03/03 18:11:04;;;;;;;31.00;16.10;;;3.40;99.90;;;;;;4895286;29;20044;-63
2023/03/03 18:13:50;;;;;;;31.85;15.73;;;3.30;99.90;;;;;;4895040;29;20068;-63
2023/03/03 18:16:55;;;;;;;33.38;15.82;;;3.40;99.90;;;;;;4895525;29;20423;-62
2023/03/03 18:19:51;;;;;;;31.58;15.80;;;3.40;99.90;;;;;;4881742;29;20194;-60
2023/03/03 18:22:29;;;;;;;42.97;18.13;;;3.50;99.90;;;;;;4895098;29;20051;-60
2023/03/03 18:25:07;;;;;;;36.00;16.20;;;3.50;99.90;;;;;;4895019;29;20135;-55
2023/03/03 18:27:35;;;;;;;36.42;15.63;;;3.50;99.90;;;;;;4895560;29;20487;-58
2023/03/03 18:30:07;;;;;;;38.55;16.08;;;3.50;99.90;;;;;;4895201;29;20056;-61
2023/03/03 18:32:54;;;;;;;40.97;17.02;;;3.50;99.90;;;;;;4895197;29;20116;-60
2023/03/03 18:35:37;;;;;;;33.00;15.30;;;3.40;99.90;;;;;;4894984;29;20509;-61
2023/03/03 18:38:14;;;;;;;36.63;16.65;;;3.40;99.90;;;;;;4895721;29;20103;-64
2023/03/03 18:41:02;;;;;;;40.05;15.68;;;3.40;99.90;;;;;;4895296;29;20486;-64
2023/03/03 18:43:43;;;;;;;37.38;17.15;;;3.40;99.90;;;;;;4894936;29;20029;-65
2023/03/03 18:46:20;;;;;;;43.05;18.77;;;3.50;99.90;;;;;;4895400;29;20522;-62
2023/03/03 18:48:52;;;;;;;43.35;16.55;;;3.40;99.90;;;;;;4899159;29;20487;-59
2023/03/03 18:51:39;;;;;;;36.95;16.70;;;3.30;99.90;;;;;;4899060;29;20518;-61
2023/03/03 18:54:10;;;;;;;51.38;17.05;;;3.30;99.90;;;;;;4898496;29;20167;-61
2023/03/03 18:56:52;;;;;;;35.30;16.67;;;3.60;99.90;;;;;;4898677;29;20029;-62
2023/03/03 18:59:29;;;;;;;40.13;17.35;;;3.30;99.90;;;;;;4899178;29;20116;-62
2023/03/03 19:02:13;;;;;;;50.60;16.90;;;3.70;99.90;;;;;;4899533;29;20048;-64
2023/03/03 19:04:42;;;;;;;47.58;18.92;;;3.30;99.90;;;;;;4898942;29;20028;-62
2023/03/03 19:07:31;;;;;;;43.28;18.70;;;4.20;99.90;;;;;;4899270;29;20047;-60
2023/03/03 19:10:23;;;;;;;37.72;16.33;;;3.30;99.90;;;;;;4882234;29;20077;-62
2023/03/03 19:12:58;;;;;;;52.72;18.88;;;3.30;99.90;;;;;;4862993;29;20128;-58
2023/03/03 19:15:30;;;;;;;44.88;19.33;;;3.30;99.90;;;;;;4899180;29;20032;-62
2023/03/03 19:18:03;;;;;;;49.05;18.63;;;3.30;99.90;;;;;;4898715;29;20051;-56
2023/03/03 19:20:38;;;;;;;47.35;18.60;;;3.20;99.90;;;;;;4899026;29;20040;-61
2023/03/03 19:23:11;;;;;;;38.40;16.92;;;3.20;99.90;;;;;;4898933;29;20028;-63
2023/03/03 19:25:36;;;;;;;50.83;19.60;;;3.20;99.90;;;;;;4899229;29;20660;-65
2023/03/03 19:28:14;;;;;;;46.38;17.95;;;3.20;99.90;;;;;;4898769;29;20032;-62
2023/03/03 19:30:40;;;;;;;45.95;18.90;;;3.20;99.90;;;;;;4898901;29;20107;-62
2023/03/03 19:33:16;;;;;;;47.63;18.73;;;3.30;99.90;;;;;;4898491;29;20472;-61
2023/03/03 19:36:19;;;;;;;47.95;18.45;;;3.20;99.90;;;;;;4898803;29;20044;-63
2023/03/03 19:39:14;;;;;;;40.58;18.02;;;3.30;99.90;;;;;;4815722;29;20035;-62
2023/03/03 19:42:03;;;;;;;38.33;17.95;;;3.30;99.90;;;;;;4898634;29;20439;-61
2023/03/03 19:45:16;;;;;;;44.33;17.20;;;3.30;99.90;;;;;;4898436;29;20092;-54
2023/03/03 19:47:59;;;;;;;36.47;16.77;;;3.30;99.90;;;;;;4856398;29;20070;-62
2023/03/03 19:50:43;;;;;;;48.35;19.25;;;3.70;99.90;;;;;;4898263;29;20040;-61
2023/03/03 19:53:49;;;;;;;40.47;18.10;;;3.30;99.90;;;;;;4898294;29;20036;-58
2023/03/03 19:56:33;;;;;;;;;;;3.30;99.90;;;;;;4898628;29;20039;-63
2023/03/03 19:59:17;;;;;;;47.28;18.50;;;3.40;99.90;;;;;;4897927;29;19966;-59
2023/03/03 20:01:49;;;;;;;44.25;16.38;;;3.40;99.90;;;;;;4898124;29;20039;-62
2023/03/03 20:04:19;;;;;;;52.75;19.95;;;3.40;99.90;;;;;;4898189;29;20519;-61
2023/03/03 20:06:47;;;;;;;44.70;17.50;;;3.40;99.90;;;;;;4881380;29;20044;-62
2023/03/03 20:09:33;;;;;;;46.75;18.88;;;3.50;99.90;;;;;;4881782;29;20512;-62
2023/03/03 20:12:32;;;;;;;51.90;18.88;;;3.40;99.90;;;;;;4899017;29;20394;-64
2023/03/03 20:15:08;;;;;;;39.55;16.67;;;3.40;99.90;;;;;;4898264;29;20032;-60
2023/03/03 20:17:43;;;;;;;36.92;16.33;;;3.50;99.90;;;;;;4898899;29;20032;-63
2023/03/03 20:20:15;;;;;;;50.90;17.02;;;3.60;99.90;;;;;;4898886;29;20028;-63
2023/03/03 20:22:46;;;;;;;42.95;17.30;;;3.90;99.90;;;;;;4899199;29;20483;-60
2023/03/03 20:25:32;;;;;;;47.90;18.13;;;3.40;99.90;;;;;;4898959;29;20388;-62
2023/03/03 20:28:29;;;;;;;44.05;17.10;;;3.50;99.90;;;;;;4899496;29;20056;-60
2023/03/03 20:31:06;;;;;;;46.50;17.05;;;3.60;99.90;;;;;;4882229;29;20040;-64
2023/03/03 20:33:43;;;;;;;44.08;18.48;;;3.50;99.90;;;;;;4898656;29;20060;-62
2023/03/03 20:36:11;;;;;;;40.95;16.17;;;3.50;99.90;;;;;;4899091;29;20029;-59
2023/03/03 20:39:10;;;;;;;44.90;16.75;;;3.50;99.90;;;;;;4898015;29;20021;-62
2023/03/03 20:41:57;;;;;;;45.50;15.57;;;3.50;99.90;;;;;;4897822;29;20039;-64
2023/03/03 20:44:32;;;;;;;43.60;16.58;;;3.70;99.90;;;;;;4897164;29;20033;-63
2023/03/03 20:47:08;;;;;;;41.55;16.77;;;3.50;99.90;;;;;;4897348;29;20039;-64
2023/03/03 20:49:51;;;;;;;42.30;14.98;;;3.40;99.90;;;;;;4880616;29;20119;-58
2023/03/03 20:52:45;;;;;;;35.72;15.27;;;3.40;99.90;;;;;;4897124;29;20032;-59
2023/03/03 20:55:32;;;;;;;40.28;15.85;;;3.40;99.90;;;;;;4896767;29;20028;-64
2023/03/03 20:58:22;;;;;;;43.90;16.83;;;3.40;99.90;;;;;;4910650;23;20143;-63
2023/03/03 21:01:02;;;;;;;47.70;17.42;;;3.00;99.90;;;;;;4897379;29;20032;-60
2023/03/03 21:03:37;;;;;;;43.63;16.10;;;3.20;99.90;;;;;;4897051;29;20444;-61
2023/03/03 21:06:08;;;;;;;30.42;15.05;;;3.40;99.90;;;;;;4896831;29;20037;-63
2023/03/03 21:08:51;;;;;;;35.00;14.63;;;3.40;99.90;;;;;;4896511;29;20104;-60
2023/03/03 21:11:19;;;;;;;43.85;15.68;;;4.60;99.90;;;;;;4896677;29;20523;-61
2023/03/03 21:13:50;;;;;;;29.70;12.77;;;3.20;99.90;;;;;;4896642;29;20250;-63
2023/03/03 21:16:19;;;;;;;41.75;15.32;;;3.30;99.90;;;;;;4896942;29;20517;-61
2023/03/03 21:19:00;;;;;;;30.42;13.55;;;3.30;99.90;;;;;;4896705;29;20032;-62
2023/03/03 21:21:28;;;;;;;45.65;14.68;;;3.40;99.90;;;;;;4896884;29;20104;-61
2023/03/03 21:23:54;;;;;;;31.92;14.45;;;3.20;99.90;;;;;;4896793;29;20036;-63
2023/03/03 21:26:51;;;;;;;39.65;13.88;;;3.30;99.90;;;;;;4896563;29;20071;-57
2023/03/03 21:29:25;;;;;;;37.55;14.70;;;3.20;99.90;;;;;;4890047;29;20112;-61
2023/03/03 21:32:06;;;;;;;37.97;15.10;;;3.20;99.90;;;;;;4896825;29;20037;-59
2023/03/03 21:34:38;;;;;;;39.10;14.07;;;3.20;99.90;;;;;;4896627;29;20391;-60
2023/03/03 21:37:33;;;;;;;46.95;15.05;;;0.10;99.90;;;;;;4896580;29;20025;-58
2023/03/03 21:40:25;;;;;;;31.77;14.45;;;3.10;99.90;;;;;;4896488;29;20168;-61
2023/03/03 21:42:53;;;;;;;32.53;14.18;;;3.20;99.90;;;;;;4895955;29;20491;-58
2023/03/03 21:45:19;;;;;;;31.58;14.40;;;;;;;;;;4879489;29;20047;-60
2023/03/03 21:47:45;;;;;;;35.33;13.88;;;3.20;99.90;;;;;;4896182;29;20032;-60
2023/03/03 21:50:12;;;;;;;37.80;14.52;;;2.90;99.90;;;;;;4897671;29;20401;-60
2023/03/03 21:52:38;;;;;;;32.90;14.07;;;;;;;;;;4897615;29;20039;-61
2023/03/03 21:55:04;;;;;;;29.75;13.10;;;3.10;99.90;;;;;;4896912;29;20016;-55
2023/03/03 21:57:30;;;;;;;29.08;13.60;;;3.20;99.90;;;;;;4897290;29;20104;-61
2023/03/03 21:59:56;;;;;;;33.20;14.40;;;;;;;;;;4896955;29;20035;-60
2023/03/03 22:02:21;;;;;;;34.10;14.75;;;3.30;99.90;;;;;;4896701;29;20115;-59
2023/03/03 22:04:47;;;;;;;37.42;14.27;;;;;;;;;;4895944;29;20104;-60
2023/03/03 22:07:13;;;;;;;37.75;14.80;;;3.10;99.90;;;;;;4896117;29;20363;-59
2023/03/03 22:09:39;;;;;;;43.03;15.10;;;3.30;99.90;;;;;;4896539;29;20481;-61
2023/03/03 22:12:06;;;;;;;39.35;13.43;;;3.20;99.90;;;;;;4896434;29;20531;-58
2023/03/03 22:14:32;;;;;;;36.20;13.68;;;3.20;99.90;;;;;;4897678;29;20037;-60
2023/03/03 22:16:58;;;;;;;34.85;14.40;;;3.20;99.90;;;;;;4898054;29;20031;-59
2023/03/03 22:19:24;;;;;;;33.55;12.90;;;3.20;99.90;;;;;;4899245;29;20558;-60
2023/03/03 22:21:50;;;;;;;27.95;12.35;;;3.10;99.90;;;;;;4899215;29;20029;-60
2023/03/03 22:24:16;;;;;;;32.78;13.82;;;3.20;99.90;;;;;;4897889;29;20028;-60
2023/03/03 22:26:42;;;;;;;28.42;14.00;;;3.10;99.90;;;;;;4896612;29;20032;-61
2023/03/03 22:29:09;;;;;;;36.60;13.88;;;3.10;99.90;;;;;;4896250;29;20328;-63